DEMOS: IP look-up, visitors, map, METAR - This is NOT a real site !

Notice: Undefined index: district in /home/sites/beteljuice.co.uk/public_html/DEMOS/betel_who/who_check.php on line 269 corporate bad guys
Find a country:

Home ...

.... Is where the heart is.

Hello new visitor ... Have some fun with the map whilst you are here !


Location:
,
,
United States
Lat:  ,
Lon:
Other stuff:
District:
as: AS14618 Amazon.com, Inc.
countryCode: US
ISP: Amazon Technologies Inc.
IP address: 3.94.202.172
Region: VA
Time Zone: America/New_York (always useful to know)
Zip / Postal Code: 20149
Organisation: AWS EC2 (us-east-1)

That's All Folks !

METAR stations within miles - nearest first

Currently reporting:
KJYO LEESBURG/GODFREY distance: 4.54 miles. WNW
@ 2020-02-17  18:55 UTC,

     KJYO 171855Z AUTO 05005KT 10SM CLR 11/M01 A3026 RMK AO2
KIAD WASH DC/DULLES distance: 7.89 miles. SSE
@ 2020-02-17  18:52 UTC,

     KIAD 171852Z 02004KT 10SM FEW120 FEW250 12/M03 A3025 RMK AO2 SLP244 T01171033
KGAI GAITHERSBURG distance: 19.18 miles. ENE
@ 2020-02-17  17:56 UTC,

     KGAI 171756Z AUTO VRB03KT 10SM CLR 11/M04 A3026 RMK AO2 SLP265 T01061044 10111 21011 58002
KHEF MANASSAS MUNI distance: 22.66 miles. S
@ 2020-02-17  17:56 UTC,

     KHEF 171756Z AUTO 00000KT 10SM CLR 11/M02 A3027 RMK AO2 SLP258 T01061022 10111 21039 58003
KFDK FREDERICK distance: 26.56 miles. NNE
@ 2020-02-17  18:47 UTC,

     KFDK 171847Z 36004KT 10SM SKC 11/M03 A3026
KDCA WASHINGTON/NATL distance: 27.83 miles. ESE
@ 2020-02-17  18:52 UTC,

     KDCA 171852Z 00000KT 10SM SCT080 BKN250 12/M03 A3026 RMK AO2 SLP248 T01221033
KDAA FORT BELVOIR/DAV distance: 28.43 miles. SE
@ 2020-02-17  17:56 UTC,

     KDAA 171756Z AUTO 10003KT 10SM FEW220 11/M04 A3027 RMK AO2 SLP254 T01131040 10114 21012 58000 $
KCGS COLLEGE PARK distance: 30.92 miles. E
@ 2020-02-17  18:48 UTC,

     KCGS 171848Z AUTO 01003KT 10SM CLR 11/M07 A3025 RMK AO1 T01071075
KHWY WARRENTON distance: 34.12 miles. SSW
@ 2020-02-17  18:55 UTC,

     KHWY 171855Z AUTO 00000KT 10SM CLR 12/M06 A3025 RMK AO2 T01191065
KOKV WINCHESTER RGNL distance: 36.07 miles. W
@ 2020-02-17  18:55 UTC,

     KOKV 171855Z AUTO 10005KT 10SM CLR 09/M02 A3021 RMK AO2
KMRB MARTINSBURG distance: 36.2 miles. NW
@ 2020-02-17  18:53 UTC,

     KMRB 171853Z VRB03KT 10SM CLR 11/M05 A3022 RMK AO2 SLP237 T01061050
KADW ANDREWS AFB distance: 36.87 miles. ESE
@ 2020-02-17  17:56 UTC,

     KADW 171756Z AUTO 11004KT 10SM CLR 10/M05 A3026 RMK AO2 SLP256 T01041048 10106 21017 50001 $
KFME FORT MEADE distance: 38.76 miles. E
@ 2020-02-17  18:48 UTC,

     KFME 171848Z AUTO 00000KT 10SM CLR 10/M03 A3028 RMK AO1
KNYG QUANTICO MCAF distance: 39.15 miles. SSE
@ 2020-02-17  17:56 UTC,

     KNYG 171756Z AUTO 02006KT 10SM CLR 11/ A3029 RMK AO2 SLP257 T0106 10106 20006 50001 $
KCJR CULPEPER distance: 40.76 miles. SSW
@ 2020-02-17  18:35 UTC,

     KCJR 171835Z AUTO 11004KT 10SM CLR 12/M07 A3027 RMK AO2 T01171067
KFRR FRONT ROYAL distance: 41.89 miles. WSW
@ 2020-02-17  18:35 UTC,

     KFRR 171835Z AUTO 01003KT 10SM CLR 10/M03 A3022 RMK AO1
KBWI BALTO/WASH INTL distance: 43.94 miles. ENE
@ 2020-02-17  18:54 UTC,

     KBWI 171854Z 00000KT 10SM FEW120 BKN200 12/M04 A3025 RMK AO2 SLP243 T01171044
KRMN STAFFORD REGNL distance: 44.53 miles. S
@ 2020-02-17  18:55 UTC,

     KRMN 171855Z AUTO 11004KT 10SM CLR 12/M05 A3029 RMK AO2 T01241053
KDMW CARROLL CNTY distance: 46.43 miles. NNE
@ 2020-02-17  18:45 UTC,

     KDMW 171845Z AUTO 31004KT 10SM CLR 10/M05 A3024 RMK AO2
KHGR HAGERSTOWN distance: 47.2 miles. NNW
@ 2020-02-17  18:53 UTC,

     KHGR 171853Z 00000KT 10SM CLR 10/M06 A3023 RMK AO2 SLP251 T01001056
KDMH BALTIMORE/DWNTWN distance: 49.49 miles. ENE
@ 2020-02-17  18:54 UTC,

     KDMH 171854Z AUTO 12/M01 A3026 RMK AO1 SLP248 T01171011

Not current (maybe part-time, military or newly obsolete)
KW32 CLINTON distance: 36.05 miles. SE
KRSP NSF THURMONT distance: 41.9 miles. N
KJWX FORT RITCHIE distance: 46.64 miles. N
KRYT FOUNTAIN DALE distance: 47.73 miles. N

Total 'clicks': 157 - Current 'clicks': 1

Last 7 days 14 unique visitors - currently active 1
Ashburn, Virginia, United States - more ...      
- Time on line: 0s. (1 total visits)
Dzerzhinsk, Nizhny Novgorod Oblast, Russia - more ...      
- Last seen: 41m. 42s. ago. (1 total visits)
Bergamo, Lombardy, Italy - more ...      
- Last seen: 1 hrs. 4m. 20s. ago. (1 total visits)
Dudley, England, United Kingdom - more ...      
- Last seen: 2 hrs. 45m. 39s. ago. (36 total visits)
Paris, Île-de-France, France - more ...      
- Last seen: 5 hrs. 44m. 15s. ago. (2 total visits)
Weimar, Thuringia, Germany - more ...      
- Last seen: 10 hrs. 12m. 32s. ago. (106 total visits)
London, England, United Kingdom - more ...      
- Last seen: 10 hrs. 32m. 33s. ago. (2 total visits)
Sydney, New South Wales, Australia - more ...      
- Last seen: 12 hrs. 39m. 46s. ago. (1 total visits)
Amsterdam, North Holland, Netherlands - more ...      
- Last seen: 13 hrs. 33m. 9s. ago. (1 total visits)
Gorakhpur, Uttar Pradesh, India - more ...      
- Last seen: 22 hrs. 18m. 18s. ago. (1 total visits)
Moscow, Russia - more ...      
- Last seen: 23 hrs. 53m. 32s. ago. (1 total visits)
Buffalo, New York, United States - more ...      
- Last seen: 1 days 3 hrs. 55m. 1s. ago. (1 total visits)
Vienna, Austria - more ...      
- Last seen: 1 days 4 hrs. 43m. 10s. ago. (2 total visits)
London, England, United Kingdom - more ...      
- Last seen: 1 days 17 hrs. 21m. 58s. ago. (1 total visits)
By Country:
                       10 countries, 14 visitors, 157 hits
United States:
                              2 visitors, 2 hits
Ashburn, Virginia, United States - more ...      
- Time on line: 0s. (1 total visits)
Buffalo, New York, United States - more ...      
- Last seen: 1 days 3 hrs. 55m. 1s. ago. (1 total visits)
Russia:
                              2 visitors, 2 hits
Dzerzhinsk, Nizhny Novgorod Oblast, Russia - more ...      
- Last seen: 41m. 42s. ago. (1 total visits)
Moscow, Russia - more ...      
- Last seen: 23 hrs. 53m. 32s. ago. (1 total visits)
Italy:
                              1 visitors, 1 hits
Bergamo, Lombardy, Italy - more ...      
- Last seen: 1 hrs. 4m. 20s. ago. (1 total visits)
United Kingdom:
                              3 visitors, 39 hits
Dudley, England, United Kingdom - more ...      
- Last seen: 2 hrs. 45m. 39s. ago. (36 total visits)
London, England, United Kingdom - more ...      
- Last seen: 10 hrs. 32m. 33s. ago. (2 total visits)
London, England, United Kingdom - more ...      
- Last seen: 1 days 17 hrs. 21m. 58s. ago. (1 total visits)
France:
                              1 visitors, 2 hits
Paris, Île-de-France, France - more ...      
- Last seen: 5 hrs. 44m. 15s. ago. (2 total visits)
Germany:
                              1 visitors, 106 hits
Weimar, Thuringia, Germany - more ...      
- Last seen: 10 hrs. 12m. 32s. ago. (106 total visits)
Australia:
                              1 visitors, 1 hits
Sydney, New South Wales, Australia - more ...      
- Last seen: 12 hrs. 39m. 46s. ago. (1 total visits)
Netherlands:
                              1 visitors, 1 hits
Amsterdam, North Holland, Netherlands - more ...      
- Last seen: 13 hrs. 33m. 9s. ago. (1 total visits)
India:
                              1 visitors, 1 hits
Gorakhpur, Uttar Pradesh, India - more ...      
- Last seen: 22 hrs. 18m. 18s. ago. (1 total visits)
Austria:
                              1 visitors, 2 hits
Vienna, Austria - more ...      
- Last seen: 1 days 4 hrs. 43m. 10s. ago. (2 total visits)

Another beteljuice plaything